sensor_id;sensor_type;location;lat;lon;timestamp;P1;durP1;ratioP1;P2;durP2;ratioP2
21494;SDS011;10909;53.590;10.054;2023-07-13T00:00:25;1.55;;;1.35;;
21494;SDS011;10909;53.590;10.054;2023-07-13T00:03:01;2.78;;;1.60;;
21494;SDS011;10909;53.590;10.054;2023-07-13T00:05:32;4.38;;;1.50;;
21494;SDS011;10909;53.590;10.054;2023-07-13T00:08:00;1.73;;;1.33;;
21494;SDS011;10909;53.590;10.054;2023-07-13T00:10:32;1.98;;;1.30;;
21494;SDS011;10909;53.590;10.054;2023-07-13T00:12:59;1.70;;;1.15;;
21494;SDS011;10909;53.590;10.054;2023-07-13T00:15:28;2.78;;;1.30;;
21494;SDS011;10909;53.590;10.054;2023-07-13T00:17:56;2.17;;;1.48;;
21494;SDS011;10909;53.590;10.054;2023-07-13T00:20:27;4.03;;;1.50;;
21494;SDS011;10909;53.590;10.054;2023-07-13T00:22:54;1.70;;;1.40;;
21494;SDS011;10909;53.590;10.054;2023-07-13T00:25:25;2.45;;;1.60;;
21494;SDS011;10909;53.590;10.054;2023-07-13T00:30:23;1.55;;;1.38;;
21494;SDS011;10909;53.590;10.054;2023-07-13T00:32:51;1.98;;;1.30;;
21494;SDS011;10909;53.590;10.054;2023-07-13T00:35:22;4.05;;;1.75;;
21494;SDS011;10909;53.590;10.054;2023-07-13T00:37:55;1.95;;;1.50;;
21494;SDS011;10909;53.590;10.054;2023-07-13T00:40:23;1.95;;;1.70;;
21494;SDS011;10909;53.590;10.054;2023-07-13T00:42:52;2.47;;;1.65;;
21494;SDS011;10909;53.590;10.054;2023-07-13T00:47:48;2.83;;;1.80;;
21494;SDS011;10909;53.590;10.054;2023-07-13T00:50:20;1.88;;;1.63;;
21494;SDS011;10909;53.590;10.054;2023-07-13T00:52:49;1.98;;;1.60;;
21494;SDS011;10909;53.590;10.054;2023-07-13T00:55:28;3.80;;;1.80;;
21494;SDS011;10909;53.590;10.054;2023-07-13T00:57:55;3.15;;;1.92;;
21494;SDS011;10909;53.590;10.054;2023-07-13T01:00:22;2.65;;;1.90;;
21494;SDS011;10909;53.590;10.054;2023-07-13T01:02:52;2.85;;;1.70;;
21494;SDS011;10909;53.590;10.054;2023-07-13T01:05:26;5.55;;;1.85;;
21494;SDS011;10909;53.590;10.054;2023-07-13T01:07:54;3.72;;;1.95;;
21494;SDS011;10909;53.590;10.054;2023-07-13T01:10:25;2.80;;;1.55;;
21494;SDS011;10909;53.590;10.054;2023-07-13T01:13:10;3.15;;;1.80;;
21494;SDS011;10909;53.590;10.054;2023-07-13T01:15:42;2.40;;;1.10;;
21494;SDS011;10909;53.590;10.054;2023-07-13T01:18:26;3.30;;;1.60;;
21494;SDS011;10909;53.590;10.054;2023-07-13T01:20:59;2.75;;;1.48;;
21494;SDS011;10909;53.590;10.054;2023-07-13T01:23:35;3.75;;;1.80;;
21494;SDS011;10909;53.590;10.054;2023-07-13T01:26:12;2.22;;;1.40;;
21494;SDS011;10909;53.590;10.054;2023-07-13T01:31:13;3.08;;;1.40;;
21494;SDS011;10909;53.590;10.054;2023-07-13T01:33:44;3.03;;;1.60;;
21494;SDS011;10909;53.590;10.054;2023-07-13T01:36:17;1.90;;;1.40;;
21494;SDS011;10909;53.590;10.054;2023-07-13T01:38:54;2.67;;;1.55;;
21494;SDS011;10909;53.590;10.054;2023-07-13T01:41:28;2.55;;;1.25;;
21494;SDS011;10909;53.590;10.054;2023-07-13T01:43:56;1.83;;;1.45;;
21494;SDS011;10909;53.590;10.054;2023-07-13T01:46:32;3.28;;;1.40;;
21494;SDS011;10909;53.590;10.054;2023-07-13T01:49:00;2.13;;;1.40;;
21494;SDS011;10909;53.590;10.054;2023-07-13T01:51:41;2.33;;;1.70;;
21494;SDS011;10909;53.590;10.054;2023-07-13T01:54:38;5.45;;;1.92;;
21494;SDS011;10909;53.590;10.054;2023-07-13T01:57:11;2.33;;;1.48;;
21494;SDS011;10909;53.590;10.054;2023-07-13T01:59:46;1.73;;;1.50;;
21494;SDS011;10909;53.590;10.054;2023-07-13T02:02:25;4.10;;;1.48;;
21494;SDS011;10909;53.590;10.054;2023-07-13T02:04:59;2.33;;;1.58;;
21494;SDS011;10909;53.590;10.054;2023-07-13T02:07:31;3.28;;;1.70;;
21494;SDS011;10909;53.590;10.054;2023-07-13T02:10:10;2.80;;;1.67;;
21494;SDS011;10909;53.590;10.054;2023-07-13T02:12:42;2.90;;;1.52;;
21494;SDS011;10909;53.590;10.054;2023-07-13T02:17:57;1.90;;;1.52;;
21494;SDS011;10909;53.590;10.054;2023-07-13T02:20:28;1.77;;;1.60;;
21494;SDS011;10909;53.590;10.054;2023-07-13T02:23:06;3.72;;;1.63;;
21494;SDS011;10909;53.590;10.054;2023-07-13T02:25:54;2.20;;;1.75;;
21494;SDS011;10909;53.590;10.054;2023-07-13T02:28:21;2.35;;;1.60;;
21494;SDS011;10909;53.590;10.054;2023-07-13T02:30:49;1.65;;;1.50;;
21494;SDS011;10909;53.590;10.054;2023-07-13T02:33:26;2.90;;;1.95;;
21494;SDS011;10909;53.590;10.054;2023-07-13T02:35:53;2.10;;;1.88;;
21494;SDS011;10909;53.590;10.054;2023-07-13T02:38:31;2.42;;;1.70;;
21494;SDS011;10909;53.590;10.054;2023-07-13T02:40:59;2.40;;;1.83;;
21494;SDS011;10909;53.590;10.054;2023-07-13T02:43:30;2.80;;;1.90;;
21494;SDS011;10909;53.590;10.054;2023-07-13T02:46:01;2.05;;;1.63;;
21494;SDS011;10909;53.590;10.054;2023-07-13T02:48:29;2.20;;;1.80;;
21494;SDS011;10909;53.590;10.054;2023-07-13T02:50:59;3.25;;;2.20;;
21494;SDS011;10909;53.590;10.054;2023-07-13T02:53:42;2.28;;;1.90;;
21494;SDS011;10909;53.590;10.054;2023-07-13T02:56:22;3.03;;;2.00;;
21494;SDS011;10909;53.590;10.054;2023-07-13T02:59:00;3.25;;;1.88;;
21494;SDS011;10909;53.590;10.054;2023-07-13T03:01:30;4.22;;;2.08;;
21494;SDS011;10909;53.590;10.054;2023-07-13T03:03:59;2.45;;;1.92;;
21494;SDS011;10909;53.590;10.054;2023-07-13T03:06:31;3.20;;;1.98;;
21494;SDS011;10909;53.590;10.054;2023-07-13T03:08:58;2.50;;;2.30;;
21494;SDS011;10909;53.590;10.054;2023-07-13T03:11:27;3.22;;;2.40;;
21494;SDS011;10909;53.590;10.054;2023-07-13T03:13:59;2.28;;;2.00;;
21494;SDS011;10909;53.590;10.054;2023-07-13T03:16:29;2.95;;;2.05;;
21494;SDS011;10909;53.590;10.054;2023-07-13T03:18:57;2.67;;;1.98;;
21494;SDS011;10909;53.590;10.054;2023-07-13T03:21:28;2.38;;;2.08;;
21494;SDS011;10909;53.590;10.054;2023-07-13T03:23:58;2.30;;;2.10;;
21494;SDS011;10909;53.590;10.054;2023-07-13T03:26:30;2.60;;;2.10;;
21494;SDS011;10909;53.590;10.054;2023-07-13T03:29:03;2.13;;;1.92;;
21494;SDS011;10909;53.590;10.054;2023-07-13T03:31:29;3.83;;;2.30;;
21494;SDS011;10909;53.590;10.054;2023-07-13T03:34:11;2.70;;;2.20;;
21494;SDS011;10909;53.590;10.054;2023-07-13T03:36:42;2.22;;;2.03;;
21494;SDS011;10909;53.590;10.054;2023-07-13T03:39:13;2.30;;;2.10;;
21494;SDS011;10909;53.590;10.054;2023-07-13T03:44:16;2.67;;;2.00;;
21494;SDS011;10909;53.590;10.054;2023-07-13T03:46:43;2.35;;;1.90;;
21494;SDS011;10909;53.590;10.054;2023-07-13T03:49:11;3.85;;;2.15;;
21494;SDS011;10909;53.590;10.054;2023-07-13T03:51:44;2.92;;;2.13;;
21494;SDS011;10909;53.590;10.054;2023-07-13T03:54:15;4.32;;;2.42;;
21494;SDS011;10909;53.590;10.054;2023-07-13T03:56:48;3.28;;;2.33;;
21494;SDS011;10909;53.590;10.054;2023-07-13T03:59:20;3.10;;;2.33;;
21494;SDS011;10909;53.590;10.054;2023-07-13T04:01:50;3.00;;;2.10;;
21494;SDS011;10909;53.590;10.054;2023-07-13T04:04:21;3.30;;;2.13;;
21494;SDS011;10909;53.590;10.054;2023-07-13T04:07:10;3.45;;;2.17;;
21494;SDS011;10909;53.590;10.054;2023-07-13T04:09:45;3.22;;;2.17;;
21494;SDS011;10909;53.590;10.054;2023-07-13T04:12:24;2.72;;;2.10;;
21494;SDS011;10909;53.590;10.054;2023-07-13T04:15:00;4.35;;;2.17;;
21494;SDS011;10909;53.590;10.054;2023-07-13T04:17:37;1.98;;;1.77;;
21494;SDS011;10909;53.590;10.054;2023-07-13T04:20:26;5.13;;;1.95;;
21494;SDS011;10909;53.590;10.054;2023-07-13T04:25:36;2.33;;;1.45;;
21494;SDS011;10909;53.590;10.054;2023-07-13T04:28:11;4.22;;;1.40;;
21494;SDS011;10909;53.590;10.054;2023-07-13T04:30:50;2.88;;;1.85;;
21494;SDS011;10909;53.590;10.054;2023-07-13T04:33:48;3.05;;;1.90;;
21494;SDS011;10909;53.590;10.054;2023-07-13T04:36:25;2.67;;;1.60;;
21494;SDS011;10909;53.590;10.054;2023-07-13T04:39:01;3.28;;;1.98;;
21494;SDS011;10909;53.590;10.054;2023-07-13T04:41:39;3.50;;;1.73;;
21494;SDS011;10909;53.590;10.054;2023-07-13T04:44:15;2.67;;;1.73;;
21494;SDS011;10909;53.590;10.054;2023-07-13T04:46:46;2.85;;;1.70;;
21494;SDS011;10909;53.590;10.054;2023-07-13T04:49:25;5.00;;;1.90;;
21494;SDS011;10909;53.590;10.054;2023-07-13T04:52:03;3.85;;;1.73;;
21494;SDS011;10909;53.590;10.054;2023-07-13T04:54:34;2.55;;;1.77;;
21494;SDS011;10909;53.590;10.054;2023-07-13T04:57:06;3.80;;;2.20;;
21494;SDS011;10909;53.590;10.054;2023-07-13T04:59:38;2.70;;;1.92;;
21494;SDS011;10909;53.590;10.054;2023-07-13T05:04:46;2.08;;;1.90;;
21494;SDS011;10909;53.590;10.054;2023-07-13T05:07:22;2.97;;;2.13;;
21494;SDS011;10909;53.590;10.054;2023-07-13T05:09:58;4.25;;;2.03;;
21494;SDS011;10909;53.590;10.054;2023-07-13T05:12:32;2.95;;;1.80;;
21494;SDS011;10909;53.590;10.054;2023-07-13T05:15:15;2.88;;;1.83;;
21494;SDS011;10909;53.590;10.054;2023-07-13T05:17:50;4.03;;;2.00;;
21494;SDS011;10909;53.590;10.054;2023-07-13T05:20:20;6.18;;;2.10;;
21494;SDS011;10909;53.590;10.054;2023-07-13T05:22:47;5.40;;;2.30;;
21494;SDS011;10909;53.590;10.054;2023-07-13T05:25:24;3.25;;;1.80;;
21494;SDS011;10909;53.590;10.054;2023-07-13T05:27:52;7.05;;;2.03;;
21494;SDS011;10909;53.590;10.054;2023-07-13T05:30:23;4.65;;;2.35;;
21494;SDS011;10909;53.590;10.054;2023-07-13T05:32:49;4.50;;;1.95;;
21494;SDS011;10909;53.590;10.054;2023-07-13T05:35:18;5.47;;;2.10;;
21494;SDS011;10909;53.590;10.054;2023-07-13T05:38:05;6.72;;;2.42;;
21494;SDS011;10909;53.590;10.054;2023-07-13T05:40:36;6.30;;;2.65;;
21494;SDS011;10909;53.590;10.054;2023-07-13T05:43:07;5.30;;;2.20;;
21494;SDS011;10909;53.590;10.054;2023-07-13T05:45:38;8.40;;;2.45;;
21494;SDS011;10909;53.590;10.054;2023-07-13T05:48:08;4.88;;;2.00;;
21494;SDS011;10909;53.590;10.054;2023-07-13T05:50:42;3.22;;;2.20;;
21494;SDS011;10909;53.590;10.054;2023-07-13T05:53:16;3.70;;;1.98;;
21494;SDS011;10909;53.590;10.054;2023-07-13T05:55:44;3.38;;;2.22;;
21494;SDS011;10909;53.590;10.054;2023-07-13T05:58:18;5.78;;;2.50;;
21494;SDS011;10909;53.590;10.054;2023-07-13T06:00:57;3.88;;;2.05;;
21494;SDS011;10909;53.590;10.054;2023-07-13T06:03:26;5.78;;;2.20;;
21494;SDS011;10909;53.590;10.054;2023-07-13T06:05:57;4.97;;;2.30;;
21494;SDS011;10909;53.590;10.054;2023-07-13T06:08:25;6.28;;;2.90;;
21494;SDS011;10909;53.590;10.054;2023-07-13T06:11:03;6.93;;;2.75;;
21494;SDS011;10909;53.590;10.054;2023-07-13T06:13:35;5.22;;;2.00;;
21494;SDS011;10909;53.590;10.054;2023-07-13T06:16:07;4.07;;;2.20;;
21494;SDS011;10909;53.590;10.054;2023-07-13T06:18:38;6.32;;;2.30;;
21494;SDS011;10909;53.590;10.054;2023-07-13T06:21:15;4.30;;;1.90;;
21494;SDS011;10909;53.590;10.054;2023-07-13T06:23:53;5.57;;;2.25;;
21494;SDS011;10909;53.590;10.054;2023-07-13T06:26:24;5.95;;;2.03;;
21494;SDS011;10909;53.590;10.054;2023-07-13T06:28:53;3.03;;;2.17;;
21494;SDS011;10909;53.590;10.054;2023-07-13T06:31:21;4.70;;;1.98;;
21494;SDS011;10909;53.590;10.054;2023-07-13T06:33:52;6.35;;;2.28;;
21494;SDS011;10909;53.590;10.054;2023-07-13T06:36:23;7.82;;;2.42;;
21494;SDS011;10909;53.590;10.054;2023-07-13T06:38:48;9.50;;;2.15;;
21494;SDS011;10909;53.590;10.054;2023-07-13T06:41:16;6.07;;;2.15;;
21494;SDS011;10909;53.590;10.054;2023-07-13T06:43:46;2.92;;;2.13;;
21494;SDS011;10909;53.590;10.054;2023-07-13T06:46:22;5.65;;;2.28;;
21494;SDS011;10909;53.590;10.054;2023-07-13T06:49:09;9.43;;;2.33;;
21494;SDS011;10909;53.590;10.054;2023-07-13T06:51:58;5.32;;;2.20;;
21494;SDS011;10909;53.590;10.054;2023-07-13T06:54:28;4.57;;;2.10;;
21494;SDS011;10909;53.590;10.054;2023-07-13T06:56:59;5.65;;;2.10;;
21494;SDS011;10909;53.590;10.054;2023-07-13T06:59:30;4.68;;;2.30;;
21494;SDS011;10909;53.590;10.054;2023-07-13T07:02:04;5.32;;;2.10;;
21494;SDS011;10909;53.590;10.054;2023-07-13T07:04:41;3.53;;;1.98;;
21494;SDS011;10909;53.590;10.054;2023-07-13T07:07:13;5.75;;;2.15;;
21494;SDS011;10909;53.590;10.054;2023-07-13T07:09:46;4.15;;;2.17;;
21494;SDS011;10909;53.590;10.054;2023-07-13T07:12:23;3.17;;;1.67;;
21494;SDS011;10909;53.590;10.054;2023-07-13T07:14:54;4.97;;;1.70;;
21494;SDS011;10909;53.590;10.054;2023-07-13T07:17:30;4.40;;;2.20;;
21494;SDS011;10909;53.590;10.054;2023-07-13T07:20:02;4.35;;;1.90;;
21494;SDS011;10909;53.590;10.054;2023-07-13T07:22:34;5.40;;;2.00;;
21494;SDS011;10909;53.590;10.054;2023-07-13T07:25:25;3.28;;;1.98;;
21494;SDS011;10909;53.590;10.054;2023-07-13T07:27:57;3.67;;;2.13;;
21494;SDS011;10909;53.590;10.054;2023-07-13T07:30:27;4.75;;;1.98;;
21494;SDS011;10909;53.590;10.054;2023-07-13T07:32:54;5.63;;;1.90;;
21494;SDS011;10909;53.590;10.054;2023-07-13T07:35:33;4.80;;;2.10;;
21494;SDS011;10909;53.590;10.054;2023-07-13T07:38:03;3.13;;;1.92;;
21494;SDS011;10909;53.590;10.054;2023-07-13T07:40:35;3.47;;;2.17;;
21494;SDS011;10909;53.590;10.054;2023-07-13T07:43:04;5.70;;;1.85;;
21494;SDS011;10909;53.590;10.054;2023-07-13T07:45:30;3.75;;;2.10;;
21494;SDS011;10909;53.590;10.054;2023-07-13T07:47:57;2.67;;;1.90;;
21494;SDS011;10909;53.590;10.054;2023-07-13T07:50:25;4.75;;;2.30;;
21494;SDS011;10909;53.590;10.054;2023-07-13T07:52:57;3.40;;;1.60;;
21494;SDS011;10909;53.590;10.054;2023-07-13T07:55:29;2.92;;;1.60;;
21494;SDS011;10909;53.590;10.054;2023-07-13T07:58:00;4.43;;;2.30;;
21494;SDS011;10909;53.590;10.054;2023-07-13T08:00:33;7.88;;;2.08;;
21494;SDS011;10909;53.590;10.054;2023-07-13T08:03:11;4.57;;;1.90;;
21494;SDS011;10909;53.590;10.054;2023-07-13T08:05:48;4.22;;;1.50;;
21494;SDS011;10909;53.590;10.054;2023-07-13T08:08:18;5.05;;;1.83;;
21494;SDS011;10909;53.590;10.054;2023-07-13T08:10:47;5.68;;;2.10;;
21494;SDS011;10909;53.590;10.054;2023-07-13T08:13:15;3.22;;;1.80;;
21494;SDS011;10909;53.590;10.054;2023-07-13T08:15:46;4.35;;;2.05;;
21494;SDS011;10909;53.590;10.054;2023-07-13T08:18:15;3.17;;;1.90;;
21494;SDS011;10909;53.590;10.054;2023-07-13T08:20:43;4.20;;;2.08;;
21494;SDS011;10909;53.590;10.054;2023-07-13T08:23:17;3.70;;;1.85;;
21494;SDS011;10909;53.590;10.054;2023-07-13T08:25:53;6.00;;;1.85;;
21494;SDS011;10909;53.590;10.054;2023-07-13T08:28:26;5.47;;;2.10;;
21494;SDS011;10909;53.590;10.054;2023-07-13T08:31:09;7.43;;;1.83;;
21494;SDS011;10909;53.590;10.054;2023-07-13T08:33:40;4.05;;;1.42;;
21494;SDS011;10909;53.590;10.054;2023-07-13T08:36:08;6.35;;;2.03;;
21494;SDS011;10909;53.590;10.054;2023-07-13T08:38:36;4.68;;;1.83;;
21494;SDS011;10909;53.590;10.054;2023-07-13T08:41:17;5.05;;;1.80;;
21494;SDS011;10909;53.590;10.054;2023-07-13T08:43:45;4.20;;;1.98;;
21494;SDS011;10909;53.590;10.054;2023-07-13T08:46:37;5.25;;;1.85;;
21494;SDS011;10909;53.590;10.054;2023-07-13T08:49:11;2.20;;;1.58;;
21494;SDS011;10909;53.590;10.054;2023-07-13T08:51:58;4.65;;;1.75;;
21494;SDS011;10909;53.590;10.054;2023-07-13T08:54:41;3.45;;;1.85;;
21494;SDS011;10909;53.590;10.054;2023-07-13T08:57:16;4.07;;;1.60;;
21494;SDS011;10909;53.590;10.054;2023-07-13T09:00:05;3.10;;;1.70;;
21494;SDS011;10909;53.590;10.054;2023-07-13T09:02:53;4.47;;;1.92;;
21494;SDS011;10909;53.590;10.054;2023-07-13T09:05:36;3.05;;;1.70;;
21494;SDS011;10909;53.590;10.054;2023-07-13T09:14:00;2.55;;;1.48;;
21494;SDS011;10909;53.590;10.054;2023-07-13T09:16:44;3.85;;;1.63;;
21494;SDS011;10909;53.590;10.054;2023-07-13T09:19:24;3.50;;;1.70;;
21494;SDS011;10909;53.590;10.054;2023-07-13T09:22:05;2.25;;;1.45;;
21494;SDS011;10909;53.590;10.054;2023-07-13T09:27:40;4.95;;;2.10;;
21494;SDS011;10909;53.590;10.054;2023-07-13T09:30:33;4.63;;;1.70;;
21494;SDS011;10909;53.590;10.054;2023-07-13T09:33:05;3.95;;;1.73;;
21494;SDS011;10909;53.590;10.054;2023-07-13T09:35:34;3.67;;;1.70;;
21494;SDS011;10909;53.590;10.054;2023-07-13T09:38:12;4.13;;;1.90;;
21494;SDS011;10909;53.590;10.054;2023-07-13T09:40:59;3.22;;;1.88;;
21494;SDS011;10909;53.590;10.054;2023-07-13T09:44:13;2.25;;;1.60;;
21494;SDS011;10909;53.590;10.054;2023-07-13T09:50:27;2.45;;;1.73;;
21494;SDS011;10909;53.590;10.054;2023-07-13T09:53:09;2.47;;;1.40;;
21494;SDS011;10909;53.590;10.054;2023-07-13T09:55:48;2.95;;;1.63;;
21494;SDS011;10909;53.590;10.054;2023-07-13T10:08:45;3.33;;;1.77;;
21494;SDS011;10909;53.590;10.054;2023-07-13T10:11:28;3.05;;;1.50;;
21494;SDS011;10909;53.590;10.054;2023-07-13T10:14:03;2.88;;;1.50;;
21494;SDS011;10909;53.590;10.054;2023-07-13T10:17:09;3.63;;;1.85;;
21494;SDS011;10909;53.590;10.054;2023-07-13T10:20:09;4.20;;;1.92;;
21494;SDS011;10909;53.590;10.054;2023-07-13T10:25:35;4.57;;;1.83;;
21494;SDS011;10909;53.590;10.054;2023-07-13T10:28:25;2.95;;;1.67;;
21494;SDS011;10909;53.590;10.054;2023-07-13T10:31:12;3.42;;;1.60;;
21494;SDS011;10909;53.590;10.054;2023-07-13T10:33:42;3.03;;;1.60;;
21494;SDS011;10909;53.590;10.054;2023-07-13T10:39:20;3.33;;;1.63;;
21494;SDS011;10909;53.590;10.054;2023-07-13T10:41:58;3.50;;;1.60;;
21494;SDS011;10909;53.590;10.054;2023-07-13T10:47:13;2.88;;;1.48;;
21494;SDS011;10909;53.590;10.054;2023-07-13T10:49:43;3.20;;;1.70;;
21494;SDS011;10909;53.590;10.054;2023-07-13T10:52:40;3.70;;;1.40;;
21494;SDS011;10909;53.590;10.054;2023-07-13T10:55:30;4.45;;;1.90;;
21494;SDS011;10909;53.590;10.054;2023-07-13T10:57:59;4.22;;;1.98;;
21494;SDS011;10909;53.590;10.054;2023-07-13T11:00:30;2.47;;;1.65;;
21494;SDS011;10909;53.590;10.054;2023-07-13T11:03:01;2.90;;;1.65;;
21494;SDS011;10909;53.590;10.054;2023-07-13T11:05:32;5.63;;;1.60;;
21494;SDS011;10909;53.590;10.054;2023-07-13T11:08:03;8.18;;;1.75;;
21494;SDS011;10909;53.590;10.054;2023-07-13T11:10:55;4.18;;;1.65;;
21494;SDS011;10909;53.590;10.054;2023-07-13T11:13:57;3.72;;;1.45;;
21494;SDS011;10909;53.590;10.054;2023-07-13T11:24:48;2.63;;;1.75;;
21494;SDS011;10909;53.590;10.054;2023-07-13T11:27:42;2.95;;;1.58;;
21494;SDS011;10909;53.590;10.054;2023-07-13T11:30:35;4.22;;;2.17;;
21494;SDS011;10909;53.590;10.054;2023-07-13T11:36:13;2.85;;;1.23;;
21494;SDS011;10909;53.590;10.054;2023-07-13T11:41:45;3.33;;;1.55;;
21494;SDS011;10909;53.590;10.054;2023-07-13T11:44:22;2.22;;;1.40;;
21494;SDS011;10909;53.590;10.054;2023-07-13T11:46:55;3.53;;;1.40;;
21494;SDS011;10909;53.590;10.054;2023-07-13T11:49:26;1.70;;;1.40;;
21494;SDS011;10909;53.590;10.054;2023-07-13T11:51:57;2.13;;;1.50;;
21494;SDS011;10909;53.590;10.054;2023-07-13T11:54:31;2.22;;;1.45;;
21494;SDS011;10909;53.590;10.054;2023-07-13T12:00:00;1.98;;;1.20;;
21494;SDS011;10909;53.590;10.054;2023-07-13T12:02:44;2.92;;;1.50;;
21494;SDS011;10909;53.590;10.054;2023-07-13T12:05:16;2.53;;;1.33;;
21494;SDS011;10909;53.590;10.054;2023-07-13T12:07:47;2.03;;;1.30;;
21494;SDS011;10909;53.590;10.054;2023-07-13T12:10:18;5.55;;;1.70;;
21494;SDS011;10909;53.590;10.054;2023-07-13T12:16:33;2.15;;;1.30;;
21494;SDS011;10909;53.590;10.054;2023-07-13T12:18:53;3.15;;;1.50;;
21494;SDS011;10909;53.590;10.054;2023-07-13T12:21:22;1.80;;;1.33;;
21494;SDS011;10909;53.590;10.054;2023-07-13T12:23:56;3.10;;;1.50;;
21494;SDS011;10909;53.590;10.054;2023-07-13T12:26:21;3.22;;;1.30;;
21494;SDS011;10909;53.590;10.054;2023-07-13T12:28:48;3.85;;;1.77;;
21494;SDS011;10909;53.590;10.054;2023-07-13T12:31:25;2.22;;;1.48;;
21494;SDS011;10909;53.590;10.054;2023-07-13T12:34:03;2.08;;;1.13;;
21494;SDS011;10909;53.590;10.054;2023-07-13T12:36:37;2.78;;;1.30;;
21494;SDS011;10909;53.590;10.054;2023-07-13T12:39:12;2.17;;;1.33;;
21494;SDS011;10909;53.590;10.054;2023-07-13T12:41:44;1.92;;;1.05;;
21494;SDS011;10909;53.590;10.054;2023-07-13T12:44:25;1.80;;;1.27;;
21494;SDS011;10909;53.590;10.054;2023-07-13T12:47:03;2.58;;;1.33;;
21494;SDS011;10909;53.590;10.054;2023-07-13T12:49:39;1.70;;;1.30;;
21494;SDS011;10909;53.590;10.054;2023-07-13T12:52:14;3.60;;;1.30;;
21494;SDS011;10909;53.590;10.054;2023-07-13T12:54:51;1.65;;;1.30;;
21494;SDS011;10909;53.590;10.054;2023-07-13T12:57:22;3.10;;;1.50;;
21494;SDS011;10909;53.590;10.054;2023-07-13T12:59:51;2.47;;;1.65;;
21494;SDS011;10909;53.590;10.054;2023-07-13T13:02:30;5.05;;;1.73;;
21494;SDS011;10909;53.590;10.054;2023-07-13T13:05:00;3.97;;;1.60;;
21494;SDS011;10909;53.590;10.054;2023-07-13T13:07:26;2.63;;;1.30;;
21494;SDS011;10909;53.590;10.054;2023-07-13T13:09:52;2.45;;;1.80;;
21494;SDS011;10909;53.590;10.054;2023-07-13T13:12:21;2.97;;;1.42;;
21494;SDS011;10909;53.590;10.054;2023-07-13T13:14:50;3.47;;;1.58;;
21494;SDS011;10909;53.590;10.054;2023-07-13T13:17:19;1.85;;;1.40;;
21494;SDS011;10909;53.590;10.054;2023-07-13T13:19:46;2.15;;;1.33;;
21494;SDS011;10909;53.590;10.054;2023-07-13T13:22:12;1.90;;;1.70;;
21494;SDS011;10909;53.590;10.054;2023-07-13T13:24:39;1.90;;;1.45;;
21494;SDS011;10909;53.590;10.054;2023-07-13T13:27:04;2.38;;;1.60;;
21494;SDS011;10909;53.590;10.054;2023-07-13T13:29:31;2.38;;;1.65;;
21494;SDS011;10909;53.590;10.054;2023-07-13T13:31:57;3.00;;;1.52;;
21494;SDS011;10909;53.590;10.054;2023-07-13T13:34:24;2.20;;;1.40;;
21494;SDS011;10909;53.590;10.054;2023-07-13T13:36:51;1.42;;;1.20;;
21494;SDS011;10909;53.590;10.054;2023-07-13T13:39:25;2.28;;;1.40;;
21494;SDS011;10909;53.590;10.054;2023-07-13T13:41:57;1.90;;;1.30;;
21494;SDS011;10909;53.590;10.054;2023-07-13T13:44:23;4.47;;;1.70;;
21494;SDS011;10909;53.590;10.054;2023-07-13T13:46:50;2.55;;;1.40;;
21494;SDS011;10909;53.590;10.054;2023-07-13T13:49:19;1.65;;;1.30;;
21494;SDS011;10909;53.590;10.054;2023-07-13T13:51:50;2.22;;;1.52;;
21494;SDS011;10909;53.590;10.054;2023-07-13T13:54:17;3.05;;;1.67;;
21494;SDS011;10909;53.590;10.054;2023-07-13T13:56:45;2.70;;;1.80;;
21494;SDS011;10909;53.590;10.054;2023-07-13T13:59:12;3.28;;;1.80;;
21494;SDS011;10909;53.590;10.054;2023-07-13T14:01:39;3.10;;;1.95;;
21494;SDS011;10909;53.590;10.054;2023-07-13T14:04:09;2.30;;;1.58;;
21494;SDS011;10909;53.590;10.054;2023-07-13T14:06:40;1.90;;;1.63;;
21494;SDS011;10909;53.590;10.054;2023-07-13T14:09:11;3.25;;;1.75;;
21494;SDS011;10909;53.590;10.054;2023-07-13T14:11:39;3.55;;;2.17;;
21494;SDS011;10909;53.590;10.054;2023-07-13T14:14:14;2.08;;;1.80;;
21494;SDS011;10909;53.590;10.054;2023-07-13T14:16:43;2.38;;;1.50;;
21494;SDS011;10909;53.590;10.054;2023-07-13T14:19:10;3.97;;;1.95;;
21494;SDS011;10909;53.590;10.054;2023-07-13T14:21:37;5.13;;;1.92;;
21494;SDS011;10909;53.590;10.054;2023-07-13T14:24:03;2.47;;;2.03;;
21494;SDS011;10909;53.590;10.054;2023-07-13T14:26:29;2.35;;;1.50;;
21494;SDS011;10909;53.590;10.054;2023-07-13T14:29:00;2.72;;;1.83;;
21494;SDS011;10909;53.590;10.054;2023-07-13T14:31:26;2.42;;;2.10;;
21494;SDS011;10909;53.590;10.054;2023-07-13T14:33:55;3.15;;;2.20;;
21494;SDS011;10909;53.590;10.054;2023-07-13T14:38:55;1.65;;;1.52;;
21494;SDS011;10909;53.590;10.054;2023-07-13T14:41:26;2.33;;;1.60;;
21494;SDS011;10909;53.590;10.054;2023-07-13T14:43:52;2.40;;;1.65;;
21494;SDS011;10909;53.590;10.054;2023-07-13T14:46:27;1.67;;;1.55;;
21494;SDS011;10909;53.590;10.054;2023-07-13T14:49:05;2.10;;;1.50;;
21494;SDS011;10909;53.590;10.054;2023-07-13T14:51:49;1.35;;;1.25;;
21494;SDS011;10909;53.590;10.054;2023-07-13T14:54:15;1.85;;;1.70;;
21494;SDS011;10909;53.590;10.054;2023-07-13T14:56:41;2.20;;;1.80;;
21494;SDS011;10909;53.590;10.054;2023-07-13T14:59:07;2.60;;;1.98;;
21494;SDS011;10909;53.590;10.054;2023-07-13T15:01:36;2.35;;;1.65;;
21494;SDS011;10909;53.590;10.054;2023-07-13T15:04:02;3.40;;;1.70;;
21494;SDS011;10909;53.590;10.054;2023-07-13T15:06:29;2.33;;;1.75;;
21494;SDS011;10909;53.590;10.054;2023-07-13T15:08:56;2.10;;;1.73;;
21494;SDS011;10909;53.590;10.054;2023-07-13T15:11:22;1.98;;;1.40;;
21494;SDS011;10909;53.590;10.054;2023-07-13T15:13:48;2.28;;;1.63;;
21494;SDS011;10909;53.590;10.054;2023-07-13T15:16:21;2.88;;;2.10;;
21494;SDS011;10909;53.590;10.054;2023-07-13T15:18:49;3.03;;;2.15;;
21494;SDS011;10909;53.590;10.054;2023-07-13T15:21:20;2.70;;;2.00;;
21494;SDS011;10909;53.590;10.054;2023-07-13T15:23:50;1.83;;;1.50;;
21494;SDS011;10909;53.590;10.054;2023-07-13T15:26:22;2.35;;;1.92;;
21494;SDS011;10909;53.590;10.054;2023-07-13T15:28:52;2.83;;;1.85;;
21494;SDS011;10909;53.590;10.054;2023-07-13T15:31:23;2.53;;;1.60;;
21494;SDS011;10909;53.590;10.054;2023-07-13T15:33:54;2.28;;;1.80;;
21494;SDS011;10909;53.590;10.054;2023-07-13T15:36:30;1.60;;;1.50;;
21494;SDS011;10909;53.590;10.054;2023-07-13T15:39:06;1.75;;;1.45;;
21494;SDS011;10909;53.590;10.054;2023-07-13T15:41:33;1.95;;;1.48;;
21494;SDS011;10909;53.590;10.054;2023-07-13T15:44:05;2.10;;;1.52;;
21494;SDS011;10909;53.590;10.054;2023-07-13T15:46:54;2.13;;;1.63;;
21494;SDS011;10909;53.590;10.054;2023-07-13T15:49:20;3.40;;;1.55;;
21494;SDS011;10909;53.590;10.054;2023-07-13T15:51:52;2.95;;;1.77;;
21494;SDS011;10909;53.590;10.054;2023-07-13T15:54:22;1.45;;;1.27;;
21494;SDS011;10909;53.590;10.054;2023-07-13T15:56:54;1.80;;;1.60;;
21494;SDS011;10909;53.590;10.054;2023-07-13T15:59:26;3.13;;;1.73;;
21494;SDS011;10909;53.590;10.054;2023-07-13T16:02:19;2.00;;;1.50;;
21494;SDS011;10909;53.590;10.054;2023-07-13T16:04:49;2.05;;;1.60;;
21494;SDS011;10909;53.590;10.054;2023-07-13T16:07:26;2.05;;;1.70;;
21494;SDS011;10909;53.590;10.054;2023-07-13T16:10:14;1.52;;;1.40;;
21494;SDS011;10909;53.590;10.054;2023-07-13T16:13:19;2.65;;;1.30;;
21494;SDS011;10909;53.590;10.054;2023-07-13T16:15:51;1.90;;;1.30;;
21494;SDS011;10909;53.590;10.054;2023-07-13T16:18:21;2.10;;;1.60;;
21494;SDS011;10909;53.590;10.054;2023-07-13T16:20:55;4.60;;;1.50;;
21494;SDS011;10909;53.590;10.054;2023-07-13T16:23:30;2.65;;;1.50;;